sensor_id;sensor_type;location;lat;lon;timestamp;temperature;humidity
14057;DHT22;7103;54.300;10.180;2022-11-14T00:01:11;10.00;99.90
14057;DHT22;7103;54.300;10.180;2022-11-14T00:03:39;10.00;99.90
14057;DHT22;7103;54.300;10.180;2022-11-14T00:06:06;10.00;99.90
14057;DHT22;7103;54.300;10.180;2022-11-14T00:08:33;10.00;99.90
14057;DHT22;7103;54.300;10.180;2022-11-14T00:11:00;10.20;99.90
14057;DHT22;7103;54.300;10.180;2022-11-14T00:13:34;10.00;99.90
14057;DHT22;7103;54.300;10.180;2022-11-14T00:16:01;9.80;99.90
14057;DHT22;7103;54.300;10.180;2022-11-14T00:18:28;9.90;99.90
14057;DHT22;7103;54.300;10.180;2022-11-14T00:20:55;9.90;99.90
14057;DHT22;7103;54.300;10.180;2022-11-14T00:23:22;9.90;99.90
14057;DHT22;7103;54.300;10.180;2022-11-14T00:25:49;9.90;99.90
14057;DHT22;7103;54.300;10.180;2022-11-14T00:28:16;9.80;99.90
14057;DHT22;7103;54.300;10.180;2022-11-14T00:30:47;9.70;99.90
14057;DHT22;7103;54.300;10.180;2022-11-14T00:33:14;9.70;99.90
14057;DHT22;7103;54.300;10.180;2022-11-14T00:35:55;9.70;99.90
14057;DHT22;7103;54.300;10.180;2022-11-14T00:38:22;9.50;99.90
14057;DHT22;7103;54.300;10.180;2022-11-14T00:40:49;9.50;99.90
14057;DHT22;7103;54.300;10.180;2022-11-14T00:43:16;9.50;99.90
14057;DHT22;7103;54.300;10.180;2022-11-14T00:45:44;9.50;99.90
14057;DHT22;7103;54.300;10.180;2022-11-14T00:48:11;9.40;99.90
14057;DHT22;7103;54.300;10.180;2022-11-14T00:50:38;9.40;99.90
14057;DHT22;7103;54.300;10.180;2022-11-14T00:53:06;9.30;99.90
14057;DHT22;7103;54.300;10.180;2022-11-14T00:55:32;9.30;99.90
14057;DHT22;7103;54.300;10.180;2022-11-14T00:57:59;9.30;99.90
14057;DHT22;7103;54.300;10.180;2022-11-14T01:00:26;9.30;99.90
14057;DHT22;7103;54.300;10.180;2022-11-14T01:02:53;9.30;99.90
14057;DHT22;7103;54.300;10.180;2022-11-14T01:05:24;9.40;99.90
14057;DHT22;7103;54.300;10.180;2022-11-14T01:07:52;9.40;99.90
14057;DHT22;7103;54.300;10.180;2022-11-14T01:10:19;9.50;99.90
14057;DHT22;7103;54.300;10.180;2022-11-14T01:12:46;9.50;99.90
14057;DHT22;7103;54.300;10.180;2022-11-14T01:15:13;9.50;99.90
14057;DHT22;7103;54.300;10.180;2022-11-14T01:17:40;9.40;99.90
14057;DHT22;7103;54.300;10.180;2022-11-14T01:20:07;9.30;99.90
14057;DHT22;7103;54.300;10.180;2022-11-14T01:22:34;9.30;99.90
14057;DHT22;7103;54.300;10.180;2022-11-14T01:25:01;9.30;99.90
14057;DHT22;7103;54.300;10.180;2022-11-14T01:27:31;9.20;99.90
14057;DHT22;7103;54.300;10.180;2022-11-14T01:29:58;9.20;99.90
14057;DHT22;7103;54.300;10.180;2022-11-14T01:32:26;9.20;99.90
14057;DHT22;7103;54.300;10.180;2022-11-14T01:34:53;9.20;99.90
14057;DHT22;7103;54.300;10.180;2022-11-14T01:37:20;9.20;99.90
14057;DHT22;7103;54.300;10.180;2022-11-14T01:39:46;9.10;99.90
14057;DHT22;7103;54.300;10.180;2022-11-14T01:42:13;9.10;99.90
14057;DHT22;7103;54.300;10.180;2022-11-14T01:44:47;9.10;99.90
14057;DHT22;7103;54.300;10.180;2022-11-14T01:47:18;9.10;99.90
14057;DHT22;7103;54.300;10.180;2022-11-14T01:49:49;9.10;99.90
14057;DHT22;7103;54.300;10.180;2022-11-14T01:52:30;9.20;99.90
14057;DHT22;7103;54.300;10.180;2022-11-14T01:55:01;9.20;99.90
14057;DHT22;7103;54.300;10.180;2022-11-14T01:57:32;9.20;99.90
14057;DHT22;7103;54.300;10.180;2022-11-14T02:00:05;9.20;99.90
14057;DHT22;7103;54.300;10.180;2022-11-14T02:02:33;9.30;99.90
14057;DHT22;7103;54.300;10.180;2022-11-14T02:05:08;9.30;99.90
14057;DHT22;7103;54.300;10.180;2022-11-14T02:07:38;9.20;99.90
14057;DHT22;7103;54.300;10.180;2022-11-14T02:10:08;9.10;99.90
14057;DHT22;7103;54.300;10.180;2022-11-14T02:12:36;9.20;99.90
14057;DHT22;7103;54.300;10.180;2022-11-14T02:15:03;9.30;99.90
14057;DHT22;7103;54.300;10.180;2022-11-14T02:17:31;9.30;99.90
14057;DHT22;7103;54.300;10.180;2022-11-14T02:22:39;9.40;99.90
14057;DHT22;7103;54.300;10.180;2022-11-14T02:25:07;9.40;99.90
14057;DHT22;7103;54.300;10.180;2022-11-14T02:27:35;9.40;99.90
14057;DHT22;7103;54.300;10.180;2022-11-14T02:30:10;9.40;99.90
14057;DHT22;7103;54.300;10.180;2022-11-14T02:32:37;9.30;99.90
14057;DHT22;7103;54.300;10.180;2022-11-14T02:35:24;9.30;99.90
14057;DHT22;7103;54.300;10.180;2022-11-14T02:37:51;9.30;99.90
14057;DHT22;7103;54.300;10.180;2022-11-14T02:40:18;9.30;99.90
14057;DHT22;7103;54.300;10.180;2022-11-14T02:42:45;9.30;99.90
14057;DHT22;7103;54.300;10.180;2022-11-14T02:45:12;9.20;99.90
14057;DHT22;7103;54.300;10.180;2022-11-14T02:47:39;9.20;99.90
14057;DHT22;7103;54.300;10.180;2022-11-14T02:50:06;9.20;99.90
14057;DHT22;7103;54.300;10.180;2022-11-14T02:52:33;9.20;99.90
14057;DHT22;7103;54.300;10.180;2022-11-14T02:55:00;9.20;99.90
14057;DHT22;7103;54.300;10.180;2022-11-14T02:57:27;9.20;99.90
14057;DHT22;7103;54.300;10.180;2022-11-14T02:59:53;9.20;99.90
14057;DHT22;7103;54.300;10.180;2022-11-14T03:02:20;9.40;99.90
14057;DHT22;7103;54.300;10.180;2022-11-14T03:04:47;9.20;99.90
14057;DHT22;7103;54.300;10.180;2022-11-14T03:07:14;9.20;99.90
14057;DHT22;7103;54.300;10.180;2022-11-14T03:09:41;9.20;99.90
14057;DHT22;7103;54.300;10.180;2022-11-14T03:12:08;9.30;99.90
14057;DHT22;7103;54.300;10.180;2022-11-14T03:14:35;9.20;99.90
14057;DHT22;7103;54.300;10.180;2022-11-14T03:17:02;9.20;99.90
14057;DHT22;7103;54.300;10.180;2022-11-14T03:19:29;9.20;99.90
14057;DHT22;7103;54.300;10.180;2022-11-14T03:21:55;9.20;99.90
14057;DHT22;7103;54.300;10.180;2022-11-14T03:24:22;9.20;99.90
14057;DHT22;7103;54.300;10.180;2022-11-14T03:26:49;9.30;99.90
14057;DHT22;7103;54.300;10.180;2022-11-14T03:29:16;9.20;99.90
14057;DHT22;7103;54.300;10.180;2022-11-14T03:31:43;9.20;99.90
14057;DHT22;7103;54.300;10.180;2022-11-14T03:34:11;9.20;99.90
14057;DHT22;7103;54.300;10.180;2022-11-14T03:36:38;9.20;99.90
14057;DHT22;7103;54.300;10.180;2022-11-14T03:39:05;9.20;99.90
14057;DHT22;7103;54.300;10.180;2022-11-14T03:41:32;9.20;99.90
14057;DHT22;7103;54.300;10.180;2022-11-14T03:43:59;9.20;99.90
14057;DHT22;7103;54.300;10.180;2022-11-14T03:46:25;9.20;99.90
14057;DHT22;7103;54.300;10.180;2022-11-14T03:48:52;9.10;99.90
14057;DHT22;7103;54.300;10.180;2022-11-14T03:51:19;9.10;99.90
14057;DHT22;7103;54.300;10.180;2022-11-14T03:53:46;9.10;99.90
14057;DHT22;7103;54.300;10.180;2022-11-14T03:56:13;9.20;99.90
14057;DHT22;7103;54.300;10.180;2022-11-14T03:58:40;9.20;99.90
14057;DHT22;7103;54.300;10.180;2022-11-14T04:01:07;9.10;99.90
14057;DHT22;7103;54.300;10.180;2022-11-14T04:03:34;9.10;99.90
14057;DHT22;7103;54.300;10.180;2022-11-14T04:06:00;9.10;99.90
14057;DHT22;7103;54.300;10.180;2022-11-14T04:08:28;9.10;99.90
14057;DHT22;7103;54.300;10.180;2022-11-14T04:10:56;9.10;99.90
14057;DHT22;7103;54.300;10.180;2022-11-14T04:13:23;9.00;99.90
14057;DHT22;7103;54.300;10.180;2022-11-14T04:15:54;9.00;99.90
14057;DHT22;7103;54.300;10.180;2022-11-14T04:18:22;8.90;99.90
14057;DHT22;7103;54.300;10.180;2022-11-14T04:20:49;8.90;99.90
14057;DHT22;7103;54.300;10.180;2022-11-14T04:23:16;8.90;99.90
14057;DHT22;7103;54.300;10.180;2022-11-14T04:25:44;9.00;99.90
14057;DHT22;7103;54.300;10.180;2022-11-14T04:28:12;8.90;99.90
14057;DHT22;7103;54.300;10.180;2022-11-14T04:30:39;8.90;99.90
14057;DHT22;7103;54.300;10.180;2022-11-14T04:33:06;8.90;99.90
14057;DHT22;7103;54.300;10.180;2022-11-14T04:35:33;8.90;99.90
14057;DHT22;7103;54.300;10.180;2022-11-14T04:38:00;8.90;99.90
14057;DHT22;7103;54.300;10.180;2022-11-14T04:40:27;8.90;99.90
14057;DHT22;7103;54.300;10.180;2022-11-14T04:42:54;8.90;99.90
14057;DHT22;7103;54.300;10.180;2022-11-14T04:45:21;8.90;99.90
14057;DHT22;7103;54.300;10.180;2022-11-14T04:47:48;8.90;99.90
14057;DHT22;7103;54.300;10.180;2022-11-14T04:50:15;8.90;99.90
14057;DHT22;7103;54.300;10.180;2022-11-14T04:52:42;9.00;99.90
14057;DHT22;7103;54.300;10.180;2022-11-14T04:55:09;9.00;99.90
14057;DHT22;7103;54.300;10.180;2022-11-14T04:57:36;9.00;99.90
14057;DHT22;7103;54.300;10.180;2022-11-14T05:00:03;8.90;99.90
14057;DHT22;7103;54.300;10.180;2022-11-14T05:02:31;8.90;99.90
14057;DHT22;7103;54.300;10.180;2022-11-14T05:04:58;8.90;99.90
14057;DHT22;7103;54.300;10.180;2022-11-14T05:07:25;8.90;99.90
14057;DHT22;7103;54.300;10.180;2022-11-14T05:09:52;8.90;99.90
14057;DHT22;7103;54.300;10.180;2022-11-14T05:12:19;8.90;99.90
14057;DHT22;7103;54.300;10.180;2022-11-14T05:14:46;8.90;99.90
14057;DHT22;7103;54.300;10.180;2022-11-14T05:17:12;8.90;99.90
14057;DHT22;7103;54.300;10.180;2022-11-14T05:19:39;8.90;99.90
14057;DHT22;7103;54.300;10.180;2022-11-14T05:22:06;8.90;99.90
14057;DHT22;7103;54.300;10.180;2022-11-14T05:24:33;8.90;99.90
14057;DHT22;7103;54.300;10.180;2022-11-14T05:27:00;8.90;99.90
14057;DHT22;7103;54.300;10.180;2022-11-14T05:29:27;8.80;99.90
14057;DHT22;7103;54.300;10.180;2022-11-14T05:31:53;8.70;99.90
14057;DHT22;7103;54.300;10.180;2022-11-14T05:34:20;8.80;99.90
14057;DHT22;7103;54.300;10.180;2022-11-14T05:36:47;8.80;99.90
14057;DHT22;7103;54.300;10.180;2022-11-14T05:39:15;9.10;99.90
14057;DHT22;7103;54.300;10.180;2022-11-14T05:41:42;8.90;99.90
14057;DHT22;7103;54.300;10.180;2022-11-14T05:44:09;8.90;99.90
14057;DHT22;7103;54.300;10.180;2022-11-14T05:46:36;8.90;99.90
14057;DHT22;7103;54.300;10.180;2022-11-14T05:49:02;8.90;99.90
14057;DHT22;7103;54.300;10.180;2022-11-14T05:51:29;8.90;99.90
14057;DHT22;7103;54.300;10.180;2022-11-14T05:53:56;8.90;99.90
14057;DHT22;7103;54.300;10.180;2022-11-14T05:56:23;8.90;99.90
14057;DHT22;7103;54.300;10.180;2022-11-14T05:58:50;8.90;99.90
14057;DHT22;7103;54.300;10.180;2022-11-14T06:01:18;8.90;99.90
14057;DHT22;7103;54.300;10.180;2022-11-14T06:03:46;8.90;99.90
14057;DHT22;7103;54.300;10.180;2022-11-14T06:06:16;9.00;99.90
14057;DHT22;7103;54.300;10.180;2022-11-14T06:08:43;8.90;99.90
14057;DHT22;7103;54.300;10.180;2022-11-14T06:11:13;9.00;99.90
14057;DHT22;7103;54.300;10.180;2022-11-14T06:13:41;8.80;99.90
14057;DHT22;7103;54.300;10.180;2022-11-14T06:16:16;9.00;99.90
14057;DHT22;7103;54.300;10.180;2022-11-14T06:18:44;8.80;99.90
14057;DHT22;7103;54.300;10.180;2022-11-14T06:21:14;8.80;99.90
14057;DHT22;7103;54.300;10.180;2022-11-14T06:23:42;8.80;99.90
14057;DHT22;7103;54.300;10.180;2022-11-14T06:26:29;8.70;99.90
14057;DHT22;7103;54.300;10.180;2022-11-14T06:28:57;8.90;99.90
14057;DHT22;7103;54.300;10.180;2022-11-14T06:31:24;8.80;99.90
14057;DHT22;7103;54.300;10.180;2022-11-14T06:33:52;8.70;99.90
14057;DHT22;7103;54.300;10.180;2022-11-14T06:36:19;8.80;99.90
14057;DHT22;7103;54.300;10.180;2022-11-14T06:38:46;8.90;99.90
14057;DHT22;7103;54.300;10.180;2022-11-14T06:41:15;8.80;99.90
14057;DHT22;7103;54.300;10.180;2022-11-14T06:43:47;8.80;99.90
14057;DHT22;7103;54.300;10.180;2022-11-14T06:46:19;8.80;99.90
14057;DHT22;7103;54.300;10.180;2022-11-14T06:48:47;8.80;99.90
14057;DHT22;7103;54.300;10.180;2022-11-14T06:51:16;8.80;99.90
14057;DHT22;7103;54.300;10.180;2022-11-14T06:53:43;8.70;99.90
14057;DHT22;7103;54.300;10.180;2022-11-14T06:56:13;8.70;99.90
14057;DHT22;7103;54.300;10.180;2022-11-14T06:58:43;8.70;99.90
14057;DHT22;7103;54.300;10.180;2022-11-14T07:01:16;8.70;99.90
14057;DHT22;7103;54.300;10.180;2022-11-14T07:03:43;8.70;99.90
14057;DHT22;7103;54.300;10.180;2022-11-14T07:06:13;8.70;99.90
14057;DHT22;7103;54.300;10.180;2022-11-14T07:08:41;8.80;99.90
14057;DHT22;7103;54.300;10.180;2022-11-14T07:11:12;8.80;99.90
14057;DHT22;7103;54.300;10.180;2022-11-14T07:13:54;8.80;99.90
14057;DHT22;7103;54.300;10.180;2022-11-14T07:16:33;8.80;99.90
14057;DHT22;7103;54.300;10.180;2022-11-14T07:19:04;8.80;99.90
14057;DHT22;7103;54.300;10.180;2022-11-14T07:21:33;8.70;99.90
14057;DHT22;7103;54.300;10.180;2022-11-14T07:24:00;8.70;99.90
14057;DHT22;7103;54.300;10.180;2022-11-14T07:26:27;8.70;99.90
14057;DHT22;7103;54.300;10.180;2022-11-14T07:28:54;8.70;99.90
14057;DHT22;7103;54.300;10.180;2022-11-14T07:31:27;8.80;99.90
14057;DHT22;7103;54.300;10.180;2022-11-14T07:33:54;8.80;99.90
14057;DHT22;7103;54.300;10.180;2022-11-14T07:36:22;8.80;99.90
14057;DHT22;7103;54.300;10.180;2022-11-14T07:38:49;8.80;99.90
14057;DHT22;7103;54.300;10.180;2022-11-14T07:41:16;8.80;99.90
14057;DHT22;7103;54.300;10.180;2022-11-14T07:43:43;8.80;99.90
14057;DHT22;7103;54.300;10.180;2022-11-14T07:46:15;8.80;99.90
14057;DHT22;7103;54.300;10.180;2022-11-14T07:48:43;8.80;99.90
14057;DHT22;7103;54.300;10.180;2022-11-14T07:51:18;8.70;99.90
14057;DHT22;7103;54.300;10.180;2022-11-14T07:53:45;8.80;99.90
14057;DHT22;7103;54.300;10.180;2022-11-14T07:56:12;8.80;99.90
14057;DHT22;7103;54.300;10.180;2022-11-14T07:58:40;8.80;99.90
14057;DHT22;7103;54.300;10.180;2022-11-14T08:01:09;8.80;99.90
14057;DHT22;7103;54.300;10.180;2022-11-14T08:03:36;8.90;99.90
14057;DHT22;7103;54.300;10.180;2022-11-14T08:06:13;8.90;99.90
14057;DHT22;7103;54.300;10.180;2022-11-14T08:08:40;8.90;99.90
14057;DHT22;7103;54.300;10.180;2022-11-14T08:11:07;8.90;99.90
14057;DHT22;7103;54.300;10.180;2022-11-14T08:13:34;9.00;99.90
14057;DHT22;7103;54.300;10.180;2022-11-14T08:16:06;8.90;99.90
14057;DHT22;7103;54.300;10.180;2022-11-14T08:18:39;8.90;99.90
14057;DHT22;7103;54.300;10.180;2022-11-14T08:21:06;8.90;99.90
14057;DHT22;7103;54.300;10.180;2022-11-14T08:23:33;8.90;99.90
14057;DHT22;7103;54.300;10.180;2022-11-14T08:26:00;8.90;99.90
14057;DHT22;7103;54.300;10.180;2022-11-14T08:28:27;8.80;99.90
14057;DHT22;7103;54.300;10.180;2022-11-14T08:31:02;8.80;99.90
14057;DHT22;7103;54.300;10.180;2022-11-14T08:33:30;8.90;99.90
14057;DHT22;7103;54.300;10.180;2022-11-14T08:36:02;8.80;99.90
14057;DHT22;7103;54.300;10.180;2022-11-14T08:38:30;8.80;99.90
14057;DHT22;7103;54.300;10.180;2022-11-14T08:40:59;8.80;99.90
14057;DHT22;7103;54.300;10.180;2022-11-14T08:43:26;8.80;99.90
14057;DHT22;7103;54.300;10.180;2022-11-14T08:45:59;8.80;99.90
14057;DHT22;7103;54.300;10.180;2022-11-14T08:48:28;8.70;99.90
14057;DHT22;7103;54.300;10.180;2022-11-14T08:50:56;8.80;99.90
14057;DHT22;7103;54.300;10.180;2022-11-14T08:53:23;8.80;99.90
14057;DHT22;7103;54.300;10.180;2022-11-14T08:55:50;8.80;99.90
14057;DHT22;7103;54.300;10.180;2022-11-14T08:58:17;8.90;99.90
14057;DHT22;7103;54.300;10.180;2022-11-14T09:00:43;9.10;99.90
14057;DHT22;7103;54.300;10.180;2022-11-14T09:03:11;8.90;99.90
14057;DHT22;7103;54.300;10.180;2022-11-14T09:05:42;8.90;99.90
14057;DHT22;7103;54.300;10.180;2022-11-14T09:08:09;8.90;99.90
14057;DHT22;7103;54.300;10.180;2022-11-14T09:10:36;8.90;99.90
14057;DHT22;7103;54.300;10.180;2022-11-14T09:13:04;8.80;99.90
14057;DHT22;7103;54.300;10.180;2022-11-14T09:15:31;8.90;99.90
14057;DHT22;7103;54.300;10.180;2022-11-14T09:17:59;8.90;99.90
14057;DHT22;7103;54.300;10.180;2022-11-14T09:20:26;8.90;99.90
14057;DHT22;7103;54.300;10.180;2022-11-14T09:23:01;8.90;99.90
14057;DHT22;7103;54.300;10.180;2022-11-14T09:25:29;8.80;99.90
14057;DHT22;7103;54.300;10.180;2022-11-14T09:27:56;8.90;99.90
14057;DHT22;7103;54.300;10.180;2022-11-14T09:30:23;8.80;99.90
14057;DHT22;7103;54.300;10.180;2022-11-14T09:32:50;8.90;99.90
14057;DHT22;7103;54.300;10.180;2022-11-14T09:35:17;8.90;99.90
14057;DHT22;7103;54.300;10.180;2022-11-14T09:37:44;9.00;99.90
14057;DHT22;7103;54.300;10.180;2022-11-14T09:40:12;9.00;99.90
14057;DHT22;7103;54.300;10.180;2022-11-14T09:45:25;8.90;99.90
14057;DHT22;7103;54.300;10.180;2022-11-14T09:48:05;9.00;99.90
14057;DHT22;7103;54.300;10.180;2022-11-14T09:50:36;9.00;99.90
14057;DHT22;7103;54.300;10.180;2022-11-14T09:55:43;9.00;99.90
14057;DHT22;7103;54.300;10.180;2022-11-14T09:58:16;8.90;99.90
14057;DHT22;7103;54.300;10.180;2022-11-14T10:03:50;8.80;99.90
14057;DHT22;7103;54.300;10.180;2022-11-14T10:06:26;8.80;99.90
14057;DHT22;7103;54.300;10.180;2022-11-14T10:09:05;8.80;99.90
14057;DHT22;7103;54.300;10.180;2022-11-14T10:12:03;8.80;99.90
14057;DHT22;7103;54.300;10.180;2022-11-14T10:20:19;8.60;99.90
14057;DHT22;7103;54.300;10.180;2022-11-14T10:25:54;8.60;99.90
14057;DHT22;7103;54.300;10.180;2022-11-14T10:29:01;8.60;99.90
14057;DHT22;7103;54.300;10.180;2022-11-14T10:31:46;8.50;99.90
14057;DHT22;7103;54.300;10.180;2022-11-14T10:34:30;8.50;99.90
14057;DHT22;7103;54.300;10.180;2022-11-14T10:37:23;8.50;99.90
14057;DHT22;7103;54.300;10.180;2022-11-14T10:39:55;8.40;99.90
14057;DHT22;7103;54.300;10.180;2022-11-14T10:42:34;8.50;99.90
14057;DHT22;7103;54.300;10.180;2022-11-14T10:47:36;8.60;99.90
14057;DHT22;7103;54.300;10.180;2022-11-14T10:53:42;8.80;99.90
14057;DHT22;7103;54.300;10.180;2022-11-14T10:56:10;8.70;91.40
14057;DHT22;7103;54.300;10.180;2022-11-14T10:58:38;8.60;96.20
14057;DHT22;7103;54.300;10.180;2022-11-14T11:01:40;8.60;96.60
14057;DHT22;7103;54.300;10.180;2022-11-14T11:04:27;8.70;99.90
14057;DHT22;7103;54.300;10.180;2022-11-14T11:07:18;8.80;99.90
14057;DHT22;7103;54.300;10.180;2022-11-14T11:10:04;8.70;98.00
14057;DHT22;7103;54.300;10.180;2022-11-14T11:12:53;8.80;97.50
14057;DHT22;7103;54.300;10.180;2022-11-14T11:15:25;8.80;97.00
14057;DHT22;7103;54.300;10.180;2022-11-14T11:18:03;8.80;99.90
14057;DHT22;7103;54.300;10.180;2022-11-14T11:20:37;8.90;99.10
14057;DHT22;7103;54.300;10.180;2022-11-14T11:25:36;8.90;99.90
14057;DHT22;7103;54.300;10.180;2022-11-14T11:30:32;8.90;94.70
14057;DHT22;7103;54.300;10.180;2022-11-14T11:33:21;9.00;97.30
14057;DHT22;7103;54.300;10.180;2022-11-14T11:35:49;9.20;93.10
14057;DHT22;7103;54.300;10.180;2022-11-14T11:38:18;9.20;94.50
14057;DHT22;7103;54.300;10.180;2022-11-14T11:40:47;9.20;90.00
14057;DHT22;7103;54.300;10.180;2022-11-14T11:43:29;9.20;88.10
14057;DHT22;7103;54.300;10.180;2022-11-14T11:46:17;9.10;76.60
14057;DHT22;7103;54.300;10.180;2022-11-14T11:48:48;9.00;80.00
14057;DHT22;7103;54.300;10.180;2022-11-14T11:51:22;9.10;90.50
14057;DHT22;7103;54.300;10.180;2022-11-14T11:54:17;9.20;78.50
14057;DHT22;7103;54.300;10.180;2022-11-14T11:56:46;9.20;78.50
14057;DHT22;7103;54.300;10.180;2022-11-14T11:59:36;9.40;77.80
14057;DHT22;7103;54.300;10.180;2022-11-14T12:02:24;9.20;78.50
14057;DHT22;7103;54.300;10.180;2022-11-14T12:04:54;9.30;78.70
14057;DHT22;7103;54.300;10.180;2022-11-14T12:07:33;9.30;78.60
14057;DHT22;7103;54.300;10.180;2022-11-14T12:10:11;9.20;78.50
14057;DHT22;7103;54.300;10.180;2022-11-14T12:29:19;9.50;62.60
14057;DHT22;7103;54.300;10.180;2022-11-14T12:31:41;9.60;69.40
14057;DHT22;7103;54.300;10.180;2022-11-14T12:34:25;9.70;61.00
14057;DHT22;7103;54.300;10.180;2022-11-14T12:36:53;9.70;50.20
14057;DHT22;7103;54.300;10.180;2022-11-14T12:39:29;9.70;47.00
14057;DHT22;7103;54.300;10.180;2022-11-14T12:42:05;9.50;34.40
14057;DHT22;7103;54.300;10.180;2022-11-14T12:44:37;9.60;45.60
14057;DHT22;7103;54.300;10.180;2022-11-14T12:49:55;9.80;49.10
14057;DHT22;7103;54.300;10.180;2022-11-14T12:52:44;9.90;38.30
14057;DHT22;7103;54.300;10.180;2022-11-14T13:00:24;9.90;50.30
14057;DHT22;7103;54.300;10.180;2022-11-14T13:03:13;10.00;39.00
14057;DHT22;7103;54.300;10.180;2022-11-14T13:14:19;10.00;53.20
14057;DHT22;7103;54.300;10.180;2022-11-14T13:19:55;10.10;59.40
14057;DHT22;7103;54.300;10.180;2022-11-14T13:22:44;10.10;39.90
14057;DHT22;7103;54.300;10.180;2022-11-14T13:25:19;10.10;49.60
14057;DHT22;7103;54.300;10.180;2022-11-14T13:27:46;10.10;44.10
14057;DHT22;7103;54.300;10.180;2022-11-14T13:36:45;10.10;38.90
14057;DHT22;7103;54.300;10.180;2022-11-14T13:50:32;10.00;37.40
14057;DHT22;7103;54.300;10.180;2022-11-14T13:53:11;9.90;56.40
14057;DHT22;7103;54.300;10.180;2022-11-14T13:58:49;10.00;49.10
14057;DHT22;7103;54.300;10.180;2022-11-14T14:13:13;10.00;45.00
14057;DHT22;7103;54.300;10.180;2022-11-14T14:24:13;9.90;42.70
14057;DHT22;7103;54.300;10.180;2022-11-14T14:32:25;9.80;64.90
14057;DHT22;7103;54.300;10.180;2022-11-14T14:34:52;9.80;70.20
14057;DHT22;7103;54.300;10.180;2022-11-14T14:37:24;9.70;78.90
14057;DHT22;7103;54.300;10.180;2022-11-14T14:39:59;9.70;76.00
14057;DHT22;7103;54.300;10.180;2022-11-14T14:42:38;9.70;79.00
14057;DHT22;7103;54.300;10.180;2022-11-14T14:45:18;9.70;78.90
14057;DHT22;7103;54.300;10.180;2022-11-14T14:48:00;9.50;88.10
14057;DHT22;7103;54.300;10.180;2022-11-14T14:50:49;9.50;95.70
14057;DHT22;7103;54.300;10.180;2022-11-14T14:53:27;9.50;96.30
14057;DHT22;7103;54.300;10.180;2022-11-14T14:56:00;9.40;99.50
14057;DHT22;7103;54.300;10.180;2022-11-14T14:58:33;9.30;99.90
14057;DHT22;7103;54.300;10.180;2022-11-14T15:01:08;9.20;99.90
14057;DHT22;7103;54.300;10.180;2022-11-14T15:03:47;9.30;99.90
14057;DHT22;7103;54.300;10.180;2022-11-14T15:06:36;9.20;99.90
14057;DHT22;7103;54.300;10.180;2022-11-14T15:09:12;9.20;99.90
14057;DHT22;7103;54.300;10.180;2022-11-14T15:11:42;9.20;99.90
14057;DHT22;7103;54.300;10.180;2022-11-14T15:14:16;9.30;99.90
14057;DHT22;7103;54.300;10.180;2022-11-14T15:16:44;9.10;99.90
14057;DHT22;7103;54.300;10.180;2022-11-14T15:19:14;9.10;99.90
14057;DHT22;7103;54.300;10.180;2022-11-14T15:21:42;9.10;99.90
14057;DHT22;7103;54.300;10.180;2022-11-14T15:24:18;9.10;99.90
14057;DHT22;7103;54.300;10.180;2022-11-14T15:26:46;9.00;99.90
14057;DHT22;7103;54.300;10.180;2022-11-14T15:29:23;8.90;99.90
14057;DHT22;7103;54.300;10.180;2022-11-14T15:34:24;8.80;99.90
14057;DHT22;7103;54.300;10.180;2022-11-14T15:39:40;8.70;99.90
14057;DHT22;7103;54.300;10.180;2022-11-14T15:42:16;8.70;99.90
14057;DHT22;7103;54.300;10.180;2022-11-14T15:44:44;8.60;99.90
14057;DHT22;7103;54.300;10.180;2022-11-14T15:47:21;8.50;99.90
14057;DHT22;7103;54.300;10.180;2022-11-14T15:52:39;8.40;99.90
14057;DHT22;7103;54.300;10.180;2022-11-14T15:55:14;8.50;99.90
14057;DHT22;7103;54.300;10.180;2022-11-14T15:57:41;8.40;99.90
14057;DHT22;7103;54.300;10.180;2022-11-14T16:00:15;8.30;99.90
14057;DHT22;7103;54.300;10.180;2022-11-14T16:03:02;8.30;99.90
14057;DHT22;7103;54.300;10.180;2022-11-14T16:05:30;8.30;99.90
14057;DHT22;7103;54.300;10.180;2022-11-14T16:07:56;8.20;99.90
14057;DHT22;7103;54.300;10.180;2022-11-14T16:10:26;8.20;99.90
14057;DHT22;7103;54.300;10.180;2022-11-14T16:12:53;8.30;99.90
14057;DHT22;7103;54.300;10.180;2022-11-14T16:15:21;8.20;99.90
14057;DHT22;7103;54.300;10.180;2022-11-14T16:17:49;8.10;99.90
14057;DHT22;7103;54.300;10.180;2022-11-14T16:20:21;8.10;99.90
14057;DHT22;7103;54.300;10.180;2022-11-14T16:22:49;8.10;99.90
14057;DHT22;7103;54.300;10.180;2022-11-14T16:25:26;8.00;99.90
14057;DHT22;7103;54.300;10.180;2022-11-14T16:27:54;7.90;99.90
14057;DHT22;7103;54.300;10.180;2022-11-14T16:30:23;7.80;99.90
14057;DHT22;7103;54.300;10.180;2022-11-14T16:32:51;7.70;99.90
14057;DHT22;7103;54.300;10.180;2022-11-14T16:35:20;7.60;99.90
14057;DHT22;7103;54.300;10.180;2022-11-14T16:37:47;7.50;99.90
14057;DHT22;7103;54.300;10.180;2022-11-14T16:40:20;7.50;99.90
14057;DHT22;7103;54.300;10.180;2022-11-14T16:42:48;7.60;99.90
14057;DHT22;7103;54.300;10.180;2022-11-14T16:45:16;7.50;99.90
14057;DHT22;7103;54.300;10.180;2022-11-14T16:47:49;7.40;99.90
14057;DHT22;7103;54.300;10.180;2022-11-14T16:50:17;7.40;99.90
14057;DHT22;7103;54.300;10.180;2022-11-14T16:52:44;7.40;99.90
14057;DHT22;7103;54.300;10.180;2022-11-14T16:55:11;7.40;99.90
14057;DHT22;7103;54.300;10.180;2022-11-14T16:57:39;7.40;99.90
14057;DHT22;7103;54.300;10.180;2022-11-14T17:00:08;7.40;99.90
14057;DHT22;7103;54.300;10.180;2022-11-14T17:02:36;7.40;99.90
14057;DHT22;7103;54.300;10.180;2022-11-14T17:05:03;7.40;99.90
14057;DHT22;7103;54.300;10.180;2022-11-14T17:07:30;7.40;99.90
14057;DHT22;7103;54.300;10.180;2022-11-14T17:09:59;7.30;99.90
14057;DHT22;7103;54.300;10.180;2022-11-14T17:12:27;7.20;99.90
14057;DHT22;7103;54.300;10.180;2022-11-14T17:14:54;7.20;99.90
14057;DHT22;7103;54.300;10.180;2022-11-14T17:17:20;7.20;99.90
14057;DHT22;7103;54.300;10.180;2022-11-14T17:19:48;7.40;99.90
14057;DHT22;7103;54.300;10.180;2022-11-14T17:22:16;7.40;99.90
14057;DHT22;7103;54.300;10.180;2022-11-14T17:24:43;7.30;99.90
14057;DHT22;7103;54.300;10.180;2022-11-14T17:27:10;7.30;99.90
14057;DHT22;7103;54.300;10.180;2022-11-14T17:29:38;7.40;99.90
14057;DHT22;7103;54.300;10.180;2022-11-14T17:32:05;7.40;99.90
14057;DHT22;7103;54.300;10.180;2022-11-14T17:34:32;7.40;99.90
14057;DHT22;7103;54.300;10.180;2022-11-14T17:36:59;7.50;99.90
14057;DHT22;7103;54.300;10.180;2022-11-14T17:39:26;7.70;99.90
14057;DHT22;7103;54.300;10.180;2022-11-14T17:41:53;7.70;99.90
14057;DHT22;7103;54.300;10.180;2022-11-14T17:44:19;7.60;99.90
14057;DHT22;7103;54.300;10.180;2022-11-14T17:46:47;7.60;99.90
14057;DHT22;7103;54.300;10.180;2022-11-14T17:49:13;7.80;99.90
14057;DHT22;7103;54.300;10.180;2022-11-14T17:51:40;7.70;99.90
14057;DHT22;7103;54.300;10.180;2022-11-14T17:54:07;7.60;99.90
14057;DHT22;7103;54.300;10.180;2022-11-14T17:56:34;7.70;99.90
14057;DHT22;7103;54.300;10.180;2022-11-14T17:59:04;7.80;99.90
14057;DHT22;7103;54.300;10.180;2022-11-14T18:01:31;7.80;99.90
14057;DHT22;7103;54.300;10.180;2022-11-14T18:03:58;7.70;99.90
14057;DHT22;7103;54.300;10.180;2022-11-14T18:06:32;7.70;99.90